createdAt,value
2022-12-16T00:04:46.061Z,96.85
2022-12-16T00:09:56.480Z,97.25
2022-12-16T00:15:02.800Z,97.02
2022-12-16T00:20:05.732Z,97.07
2022-12-16T00:25:08.164Z,97.05
2022-12-16T00:30:10.381Z,96.96
2022-12-16T00:35:12.182Z,96.87
2022-12-16T00:40:14.018Z,96.70
2022-12-16T00:45:15.886Z,96.93
2022-12-16T00:50:18.760Z,96.84
2022-12-16T00:55:21.607Z,96.75
2022-12-16T01:00:23.812Z,96.80
2022-12-16T01:05:28.512Z,96.55
2022-12-16T01:10:30.237Z,97.02
2022-12-16T01:15:31.984Z,96.99
2022-12-16T01:20:34.454Z,96.76
2022-12-16T01:25:36.392Z,96.54
2022-12-16T01:30:38.092Z,96.77
2022-12-16T01:35:56.289Z,96.72
2022-12-16T01:40:59.029Z,96.67
2022-12-16T01:46:10.504Z,96.83
2022-12-16T01:51:24.673Z,96.47
2022-12-16T01:56:31.065Z,96.65
2022-12-16T02:01:32.971Z,96.60
2022-12-16T02:06:35.096Z,96.59
2022-12-16T02:12:08.425Z,97.04
2022-12-16T02:17:13.286Z,96.81
2022-12-16T02:23:02.962Z,97.28
2022-12-16T02:28:23.602Z,97.43
2022-12-16T02:33:49.034Z,97.19
2022-12-16T02:39:01.310Z,97.46
2022-12-16T02:44:09.251Z,97.06
2022-12-16T02:49:13.996Z,97.04
2022-12-16T02:54:17.566Z,97.33
2022-12-16T02:59:28.209Z,97.62
2022-12-16T03:04:43.214Z,97.28
2022-12-16T03:09:47.555Z,97.50
2022-12-16T03:14:52.761Z,97.69
2022-12-16T03:20:14.224Z,97.65
2022-12-16T03:25:16.437Z,97.72
2022-12-16T03:30:26.558Z,97.35
2022-12-16T03:35:48.846Z,97.38
2022-12-16T03:40:52.013Z,97.65
2022-12-16T03:46:04.301Z,97.65
2022-12-16T03:51:06.153Z,97.82
2022-12-16T03:56:08.389Z,97.85
2022-12-16T04:01:10.761Z,97.68
2022-12-16T04:06:12.603Z,97.70
2022-12-16T04:11:34.468Z,97.99
2022-12-16T04:16:55.153Z,98.03
2022-12-16T04:22:15.670Z,97.85
2022-12-16T04:27:29.597Z,98.17
2022-12-16T04:32:50.899Z,98.21
2022-12-16T04:38:11.584Z,98.60
2022-12-16T04:43:32.586Z,98.26
2022-12-16T04:48:53.483Z,98.32
2022-12-16T04:54:13.999Z,98.20
2022-12-16T04:59:34.715Z,98.51
2022-12-16T05:04:55.086Z,98.20
2022-12-16T05:10:15.680Z,98.52
2022-12-16T05:15:36.176Z,98.31
2022-12-16T05:20:56.794Z,98.33
2022-12-16T05:26:17.314Z,98.58
2022-12-16T05:31:38.036Z,98.39
2022-12-16T05:36:58.844Z,98.47
2022-12-16T05:42:19.380Z,98.38
2022-12-16T05:47:39.959Z,98.04
2022-12-16T05:53:00.470Z,98.62
2022-12-16T05:58:21.081Z,98.36
2022-12-16T06:03:41.930Z,98.13
2022-12-16T06:09:02.632Z,98.36
2022-12-16T06:14:23.246Z,98.40
2022-12-16T06:19:43.789Z,98.22
2022-12-16T06:25:04.519Z,98.48
2022-12-16T06:30:25.590Z,98.45
2022-12-16T06:35:46.178Z,98.35
2022-12-16T06:41:06.824Z,98.08
2022-12-16T06:46:27.255Z,98.21
2022-12-16T06:51:47.954Z,98.30
2022-12-16T06:57:08.371Z,98.24
2022-12-16T07:02:30.489Z,98.29
2022-12-16T07:07:52.431Z,98.07
2022-12-16T07:13:17.006Z,98.12
2022-12-16T07:18:37.463Z,98.05
2022-12-16T07:23:57.954Z,97.92
2022-12-16T07:29:18.620Z,98.11
2022-12-16T07:34:42.146Z,97.92
2022-12-16T07:40:05.533Z,97.79
2022-12-16T07:45:26.463Z,98.13
2022-12-16T07:50:47.083Z,98.19
2022-12-16T07:56:07.835Z,97.98
2022-12-16T08:01:29.419Z,98.01
2022-12-16T08:06:50.119Z,98.07
2022-12-16T08:12:10.646Z,97.62
2022-12-16T08:17:31.096Z,97.61
2022-12-16T08:22:51.360Z,97.92
2022-12-16T08:28:16.209Z,97.78
2022-12-16T08:33:37.790Z,98.08
2022-12-16T08:38:58.060Z,97.72
2022-12-16T08:44:18.831Z,97.76
2022-12-16T08:49:39.918Z,97.98
2022-12-16T08:55:00.277Z,97.93
2022-12-16T09:00:21.405Z,98.32
2022-12-16T09:05:42.370Z,97.85
2022-12-16T09:11:02.669Z,97.83
2022-12-16T09:16:23.193Z,97.55
2022-12-16T09:21:43.916Z,97.87
2022-12-16T09:27:04.146Z,97.59
2022-12-16T09:32:24.546Z,97.86
2022-12-16T09:37:45.348Z,97.75
2022-12-16T09:43:33.037Z,97.65
2022-12-16T09:49:02.579Z,97.71
2022-12-16T09:54:24.068Z,96.86
2022-12-16T09:59:53.226Z,97.10
2022-12-16T10:05:15.040Z,96.82
2022-12-16T10:10:44.570Z,97.13
2022-12-16T10:16:14.192Z,97.34
2022-12-16T10:21:42.223Z,97.38
2022-12-16T10:27:16.727Z,97.41
2022-12-16T10:32:49.443Z,97.57
2022-12-16T10:38:10.186Z,96.47
2022-12-16T10:44:10.389Z,96.53
2022-12-16T10:49:33.646Z,96.40
2022-12-16T10:54:59.337Z,96.56
2022-12-16T11:00:35.243Z,96.30
2022-12-16T11:05:56.129Z,96.37
2022-12-16T11:11:16.650Z,96.61
2022-12-16T11:16:46.263Z,96.38
2022-12-16T11:22:07.960Z,96.23
2022-12-16T11:27:39.508Z,96.04
2022-12-16T11:33:15.368Z,95.50
2022-12-16T11:38:48.623Z,95.64
2022-12-16T11:44:11.975Z,95.18
2022-12-16T11:49:50.932Z,94.83
2022-12-16T11:56:02.890Z,94.99
2022-12-16T12:01:21.169Z,94.99
2022-12-16T12:07:18.601Z,95.19
2022-12-16T12:13:17.688Z,95.52
2022-12-16T12:18:56.806Z,95.40
2022-12-16T12:24:45.852Z,95.69
2022-12-16T12:30:24.369Z,95.72
2022-12-16T12:36:09.056Z,95.84
2022-12-16T12:41:38.447Z,95.50
2022-12-16T12:47:01.890Z,95.74
2022-12-16T12:52:48.982Z,95.57
2022-12-16T12:58:13.383Z,95.64
2022-12-16T13:03:49.162Z,95.86
2022-12-16T13:09:09.814Z,95.90
2022-12-16T13:14:49.624Z,95.70
2022-12-16T13:20:14.327Z,95.54
2022-12-16T13:25:54.932Z,95.52
2022-12-16T13:31:25.571Z,96.09
2022-12-16T13:36:53.673Z,94.94
2022-12-16T13:42:19.357Z,95.42
2022-12-16T13:47:59.737Z,95.55
2022-12-16T13:53:23.057Z,94.77
2022-12-16T13:58:43.452Z,95.44
2022-12-16T14:04:10.234Z,95.90
2022-12-16T14:09:50.816Z,96.24
2022-12-16T14:15:19.717Z,96.45
2022-12-16T14:20:55.372Z,96.22
2022-12-16T14:26:17.223Z,96.30
2022-12-16T14:31:47.651Z,96.36
2022-12-16T14:37:12.604Z,96.60
2022-12-16T14:42:37.400Z,96.47
2022-12-16T14:47:58.768Z,96.43
2022-12-16T14:53:33.735Z,96.66
2022-12-16T14:58:54.372Z,96.39
2022-12-16T15:04:16.215Z,96.47
2022-12-16T15:09:46.328Z,96.63
2022-12-16T15:15:07.528Z,96.76
2022-12-16T15:20:56.090Z,96.93
2022-12-16T15:26:17.060Z,97.21
2022-12-16T15:31:50.394Z,97.37
2022-12-16T15:37:10.931Z,97.17
2022-12-16T15:42:47.825Z,97.52
2022-12-16T15:48:09.663Z,97.38
2022-12-16T15:53:51.851Z,97.75
2022-12-16T15:59:33.039Z,97.87
2022-12-16T16:04:53.624Z,97.95
2022-12-16T16:10:41.463Z,97.84
2022-12-16T16:16:02.215Z,97.45
2022-12-16T16:21:23.029Z,97.58
2022-12-16T16:26:46.581Z,98.05
2022-12-16T16:32:07.053Z,98.21
2022-12-16T16:37:33.443Z,98.30
2022-12-16T16:42:53.995Z,98.33
2022-12-16T16:48:36.328Z,98.10
2022-12-16T16:53:56.987Z,98.25
2022-12-16T16:59:17.830Z,98.26
2022-12-16T17:04:38.301Z,98.61
2022-12-16T17:09:59.085Z,98.46
2022-12-16T17:15:19.699Z,98.17
2022-12-16T17:20:40.531Z,98.38
2022-12-16T17:26:01.087Z,98.63
2022-12-16T17:31:29.223Z,98.33
2022-12-16T17:36:50.124Z,98.39
2022-12-16T17:42:10.833Z,98.60
2022-12-16T17:47:31.788Z,98.49
2022-12-16T17:52:52.320Z,98.56
2022-12-16T17:58:12.905Z,98.60
2022-12-16T18:03:33.897Z,98.45
2022-12-16T18:08:54.821Z,98.52
2022-12-16T18:14:15.384Z,98.38
2022-12-16T18:19:36.500Z,98.74
2022-12-16T18:24:56.814Z,98.41
2022-12-16T18:30:17.312Z,98.59
2022-12-16T18:35:51.602Z,98.79
2022-12-16T18:41:20.687Z,98.73
2022-12-16T18:46:41.281Z,98.63
2022-12-16T18:52:01.813Z,98.63
2022-12-16T18:57:22.367Z,98.94
2022-12-16T19:02:43.058Z,99.03
2022-12-16T19:08:03.622Z,98.95
2022-12-16T19:13:24.570Z,99.57
2022-12-16T19:18:45.307Z,99.41
2022-12-16T19:24:27.591Z,99.26
2022-12-16T19:29:48.384Z,99.38
2022-12-16T19:35:08.771Z,99.19
2022-12-16T19:40:30.929Z,99.56
2022-12-16T19:45:51.586Z,99.44
2022-12-16T19:51:20.394Z,99.43
2022-12-16T19:56:41.035Z,99.51
2022-12-16T20:02:01.696Z,99.73
2022-12-16T20:07:23.396Z,99.83
2022-12-16T20:12:44.025Z,99.70
2022-12-16T20:18:04.787Z,99.65
2022-12-16T20:23:25.157Z,99.68
2022-12-16T20:28:45.780Z,99.84
2022-12-16T20:34:12.848Z,99.83
2022-12-16T20:39:33.275Z,99.89
2022-12-16T20:44:53.813Z,99.86
2022-12-16T20:50:16.900Z,99.97
2022-12-16T20:55:37.487Z,99.99
2022-12-16T21:00:58.110Z,100.00
2022-12-16T21:06:18.716Z,100.00
2022-12-16T21:11:39.323Z,100.00
2022-12-16T21:17:00.015Z,99.97
2022-12-16T21:22:20.889Z,99.97
2022-12-16T21:27:41.269Z,100.00
2022-12-16T21:33:01.805Z,100.00
2022-12-16T21:38:30.603Z,100.00
2022-12-16T21:43:51.098Z,100.00
2022-12-16T21:49:12.256Z,100.00
2022-12-16T21:54:32.798Z,100.00
2022-12-16T21:59:53.384Z,100.00
2022-12-16T22:05:17.100Z,100.00
2022-12-16T22:10:37.947Z,100.00
2022-12-16T22:16:02.485Z,100.00
2022-12-16T22:21:25.012Z,100.00
2022-12-16T22:26:45.420Z,100.00
2022-12-16T22:32:06.914Z,100.00
2022-12-16T22:37:28.545Z,100.00
2022-12-16T22:42:48.992Z,100.00
2022-12-16T22:48:09.617Z,100.00
2022-12-16T22:53:32.847Z,100.00
2022-12-16T22:58:53.488Z,100.00
2022-12-16T23:04:16.770Z,100.00
2022-12-16T23:09:37.460Z,100.00
2022-12-16T23:14:58.022Z,100.00
2022-12-16T23:20:18.600Z,100.00
2022-12-16T23:25:39.163Z,100.00
2022-12-16T23:30:59.816Z,100.00
2022-12-16T23:36:20.169Z,100.00
2022-12-16T23:41:40.756Z,100.00
2022-12-16T23:47:01.222Z,100.00
2022-12-16T23:52:21.916Z,100.00
2022-12-16T23:57:42.451Z,100.00
